createdAt,value
2019-04-26T00:00:44.648Z,18.02
2019-04-26T00:01:44.572Z,18.10
2019-04-26T00:02:44.488Z,18.08
2019-04-26T00:03:44.411Z,18.03
2019-04-26T00:04:44.330Z,17.95
2019-04-26T00:05:44.248Z,17.99
2019-04-26T00:06:44.174Z,18.00
2019-04-26T00:07:44.086Z,17.95
2019-04-26T00:08:44.012Z,17.95
2019-04-26T00:09:43.937Z,17.95
2019-04-26T00:10:43.848Z,17.93
2019-04-26T00:11:43.786Z,18.02
2019-04-26T00:12:43.687Z,17.93
2019-04-26T00:13:43.612Z,17.87
2019-04-26T00:14:43.537Z,17.84
2019-04-26T00:15:43.449Z,17.82
2019-04-26T00:16:43.418Z,17.84
2019-04-26T00:17:43.299Z,17.82
2019-04-26T00:18:43.213Z,17.82
2019-04-26T00:19:43.137Z,17.86
2019-04-26T00:20:43.064Z,17.78
2019-04-26T00:21:42.974Z,17.84
2019-04-26T00:22:42.900Z,17.77
2019-04-26T00:23:42.813Z,17.75
2019-04-26T00:24:42.740Z,17.78
2019-04-26T00:25:42.650Z,17.79
2019-04-26T00:26:42.575Z,17.84
2019-04-26T00:27:42.502Z,17.79
2019-04-26T00:28:42.423Z,17.82
2019-04-26T00:29:42.339Z,17.74
2019-04-26T00:30:42.254Z,17.78
2019-04-26T00:31:42.178Z,17.70
2019-04-26T00:32:42.102Z,17.77
2019-04-26T00:33:42.014Z,17.71
2019-04-26T00:34:41.940Z,17.81
2019-04-26T00:35:47.789Z,17.79
2019-04-26T00:36:41.777Z,17.70
2019-04-26T00:37:41.701Z,17.74
2019-04-26T00:38:41.615Z,17.68
2019-04-26T00:39:41.545Z,17.86
2019-04-26T00:40:41.454Z,17.84
2019-04-26T00:41:41.380Z,17.87
2019-04-26T00:42:41.302Z,17.87
2019-04-26T00:43:41.214Z,17.79
2019-04-26T00:44:41.140Z,17.75
2019-04-26T00:45:41.065Z,17.84
2019-04-26T00:46:40.977Z,17.72
2019-04-26T00:47:40.902Z,17.71
2019-04-26T00:48:40.815Z,17.75
2019-04-26T00:49:43.896Z,17.79
2019-04-26T00:50:40.666Z,17.77
2019-04-26T00:51:40.579Z,17.81
2019-04-26T00:52:40.597Z,17.66
2019-04-26T00:53:40.417Z,17.68
2019-04-26T00:54:40.341Z,17.70
2019-04-26T00:55:40.255Z,17.79
2019-04-26T00:56:40.181Z,17.74
2019-04-26T00:57:40.103Z,17.74
2019-04-26T00:58:40.016Z,17.82
2019-04-26T00:59:39.946Z,17.71
2019-04-26T01:00:39.870Z,17.81
2019-04-26T01:01:39.792Z,17.79
2019-04-26T01:02:39.705Z,17.86
2019-04-26T01:03:39.621Z,17.81
2019-04-26T01:04:39.559Z,17.78
2019-04-26T01:05:39.467Z,17.82
2019-04-26T01:06:39.380Z,17.79
2019-04-26T01:07:39.304Z,17.68
2019-04-26T01:08:39.217Z,17.63
2019-04-26T01:09:39.201Z,17.55
2019-04-26T01:10:39.067Z,17.70
2019-04-26T01:11:38.981Z,17.59
2019-04-26T01:12:38.908Z,17.71
2019-04-26T01:13:38.819Z,17.68
2019-04-26T01:14:38.743Z,17.66
2019-04-26T01:15:38.656Z,17.64
2019-04-26T01:16:38.580Z,17.62
2019-04-26T01:17:38.506Z,17.68
2019-04-26T01:18:38.419Z,17.62
2019-04-26T01:19:38.344Z,17.68
2019-04-26T01:20:38.263Z,17.56
2019-04-26T01:21:38.181Z,17.54
2019-04-26T01:22:38.106Z,17.38
2019-04-26T01:23:38.020Z,17.46
2019-04-26T01:24:37.946Z,17.51
2019-04-26T01:25:37.869Z,17.40
2019-04-26T01:26:37.781Z,17.40
2019-04-26T01:27:37.706Z,17.37
2019-04-26T01:28:37.631Z,17.36
2019-04-26T01:29:37.548Z,17.26
2019-04-26T01:30:37.470Z,17.30
2019-04-26T01:31:37.387Z,17.34
2019-04-26T01:32:37.307Z,17.31
2019-04-26T01:33:37.223Z,17.33
2019-04-26T01:34:37.146Z,17.31
2019-04-26T01:35:37.057Z,17.37
2019-04-26T01:36:36.982Z,17.36
2019-04-26T01:37:36.908Z,17.31
2019-04-26T01:38:36.821Z,17.34
2019-04-26T01:39:36.746Z,17.33
2019-04-26T01:40:36.659Z,17.37
2019-04-26T01:41:36.584Z,17.34
2019-04-26T01:42:36.497Z,17.31
2019-04-26T01:43:36.422Z,17.34
2019-04-26T01:44:36.355Z,17.30
2019-04-26T01:45:36.258Z,17.31
2019-04-26T01:46:36.184Z,17.25
2019-04-26T01:47:36.097Z,17.19
2019-04-26T01:48:36.022Z,17.19
2019-04-26T01:49:35.947Z,17.18
2019-04-26T01:50:35.859Z,17.22
2019-04-26T01:51:35.785Z,17.23
2019-04-26T01:52:35.700Z,17.23
2019-04-26T01:53:35.624Z,17.22
2019-04-26T01:54:35.536Z,17.23
2019-04-26T01:55:35.459Z,17.22
2019-04-26T01:56:35.386Z,17.18
2019-04-26T01:57:35.298Z,17.21
2019-04-26T01:58:35.223Z,17.14
2019-04-26T01:59:35.147Z,17.07
2019-04-26T02:00:35.061Z,17.08
2019-04-26T02:01:34.985Z,17.07
2019-04-26T02:02:34.910Z,17.06
2019-04-26T02:03:34.823Z,17.11
2019-04-26T02:04:34.736Z,16.98
2019-04-26T02:05:34.662Z,16.91
2019-04-26T02:06:35.312Z,16.96
2019-04-26T02:07:34.499Z,17.06
2019-04-26T02:08:34.424Z,17.03
2019-04-26T02:09:34.337Z,16.88
2019-04-26T02:10:34.261Z,16.85
2019-04-26T02:11:34.175Z,16.85
2019-04-26T02:12:34.099Z,16.76
2019-04-26T02:13:34.012Z,16.94
2019-04-26T02:14:33.937Z,16.94
2019-04-26T02:15:33.862Z,16.93
2019-04-26T02:16:33.777Z,16.93
2019-04-26T02:17:33.700Z,16.89
2019-04-26T02:18:33.658Z,16.85
2019-04-26T02:19:33.727Z,16.73
2019-04-26T02:20:33.936Z,16.82
2019-04-26T02:21:34.197Z,16.76
2019-04-26T02:22:34.100Z,16.71
2019-04-26T02:23:34.285Z,16.81
2019-04-26T02:24:33.139Z,16.73
2019-04-26T02:25:33.052Z,16.81
2019-04-26T02:26:33.000Z,16.75
2019-04-26T02:27:32.901Z,16.78
2019-04-26T02:28:32.813Z,16.79
2019-04-26T02:29:32.789Z,16.75
2019-04-26T02:30:33.302Z,16.78
2019-04-26T02:31:33.766Z,16.81
2019-04-26T02:32:33.328Z,16.76
2019-04-26T02:33:33.701Z,16.70
2019-04-26T02:34:33.831Z,16.70
2019-04-26T02:35:33.951Z,16.63
2019-04-26T02:36:48.003Z,16.56
2019-04-26T02:37:32.773Z,16.58
2019-04-26T02:38:33.412Z,16.61
2019-04-26T02:39:33.399Z,16.46
2019-04-26T02:40:33.053Z,16.56
2019-04-26T02:41:33.477Z,16.63
2019-04-26T02:42:33.946Z,16.64
2019-04-26T02:43:32.063Z,16.60
2019-04-26T02:44:32.979Z,16.61
2019-04-26T02:45:32.733Z,16.56
2019-04-26T02:46:32.482Z,16.56
2019-04-26T02:47:32.780Z,16.60
2019-04-26T02:48:32.664Z,16.60
2019-04-26T02:49:32.608Z,16.61
2019-04-26T02:50:32.729Z,16.43
2019-04-26T02:51:32.512Z,16.48
2019-04-26T02:52:31.989Z,16.52
2019-04-26T02:53:31.654Z,16.48
2019-04-26T02:54:31.582Z,16.49
2019-04-26T02:55:31.554Z,16.42
2019-04-26T02:56:31.735Z,16.30
2019-04-26T02:57:31.499Z,16.45
2019-04-26T02:58:31.928Z,16.39
2019-04-26T02:59:31.751Z,16.31
2019-04-26T03:00:31.614Z,16.42
2019-04-26T03:01:31.820Z,16.46
2019-04-26T03:02:32.293Z,16.42
2019-04-26T03:03:31.640Z,16.41
2019-04-26T03:04:30.959Z,16.39
2019-04-26T03:05:31.666Z,16.38
2019-04-26T03:06:30.733Z,16.30
2019-04-26T03:07:30.036Z,16.28
2019-04-26T03:08:29.866Z,16.39
2019-04-26T03:09:31.260Z,16.33
2019-04-26T03:10:31.801Z,16.34
2019-04-26T03:11:31.450Z,16.41
2019-04-26T03:12:30.892Z,16.28
2019-04-26T03:13:30.763Z,16.35
2019-04-26T03:14:29.119Z,16.39
2019-04-26T03:15:30.343Z,16.15
2019-04-26T03:16:28.959Z,16.28
2019-04-26T03:17:30.475Z,16.27
2019-04-26T03:18:28.797Z,16.25
2019-04-26T03:19:28.709Z,16.24
2019-04-26T03:20:28.633Z,16.28
2019-04-26T03:21:28.560Z,16.28
2019-04-26T03:22:28.469Z,16.24
2019-04-26T03:23:41.360Z,16.14
2019-04-26T03:24:28.317Z,16.12
2019-04-26T03:25:28.233Z,16.17
2019-04-26T03:26:28.144Z,16.04
2019-04-26T03:27:28.070Z,16.11
2019-04-26T03:28:27.984Z,16.02
2019-04-26T03:29:27.915Z,16.04
2019-04-26T03:30:27.834Z,16.12
2019-04-26T03:31:27.751Z,16.12
2019-04-26T03:32:27.680Z,16.04
2019-04-26T03:33:27.778Z,16.08
2019-04-26T03:34:27.510Z,16.01
2019-04-26T03:35:27.425Z,16.14
2019-04-26T03:36:27.363Z,16.11
2019-04-26T03:37:27.266Z,16.11
2019-04-26T03:38:27.198Z,16.08
2019-04-26T03:39:27.097Z,16.09
2019-04-26T03:40:27.079Z,16.14
2019-04-26T03:41:26.935Z,16.05
2019-04-26T03:42:26.860Z,16.00
2019-04-26T03:43:26.774Z,15.96
2019-04-26T03:44:26.696Z,16.02
2019-04-26T03:45:26.622Z,15.96
2019-04-26T03:46:26.538Z,15.96
2019-04-26T03:47:26.461Z,15.96
2019-04-26T03:48:26.372Z,15.93
2019-04-26T03:49:26.298Z,15.93
2019-04-26T03:50:26.213Z,15.90
2019-04-26T03:51:26.144Z,15.94
2019-04-26T03:52:26.067Z,15.76
2019-04-26T03:53:25.974Z,15.80
2019-04-26T03:54:25.898Z,15.90
2019-04-26T03:55:25.813Z,15.86
2019-04-26T03:56:25.736Z,15.83
2019-04-26T03:57:25.661Z,15.76
2019-04-26T03:58:25.584Z,15.90
2019-04-26T03:59:25.492Z,15.78
2019-04-26T04:00:25.422Z,15.74
2019-04-26T04:01:25.324Z,15.97
2019-04-26T04:02:25.264Z,15.97
2019-04-26T04:03:27.000Z,15.96
2019-04-26T04:04:25.092Z,15.96
2019-04-26T04:05:25.001Z,16.01
2019-04-26T04:06:24.925Z,16.01
2019-04-26T04:07:36.733Z,16.07
2019-04-26T04:08:24.766Z,15.90
2019-04-26T04:09:24.704Z,15.86
2019-04-26T04:10:24.601Z,15.92
2019-04-26T04:11:24.610Z,15.89
2019-04-26T04:12:24.590Z,15.86
2019-04-26T04:13:24.362Z,15.76
2019-04-26T04:14:24.378Z,15.92
2019-04-26T04:15:24.201Z,15.80
2019-04-26T04:16:24.114Z,15.80
2019-04-26T04:17:24.038Z,15.89
2019-04-26T04:18:23.973Z,15.74
2019-04-26T04:19:23.876Z,15.74
2019-04-26T04:20:23.804Z,15.86
2019-04-26T04:21:23.714Z,15.78
2019-04-26T04:22:23.642Z,15.87
2019-04-26T04:23:23.549Z,16.00
2019-04-26T04:24:23.489Z,15.93
2019-04-26T04:25:23.389Z,15.93
2019-04-26T04:26:23.332Z,16.01
2019-04-26T04:27:23.228Z,16.14
2019-04-26T04:28:23.154Z,16.05
2019-04-26T04:29:38.788Z,16.14
2019-04-26T04:30:23.010Z,16.30
2019-04-26T04:32:05.027Z,16.41
2019-04-26T04:33:52.469Z,16.50
2019-04-26T04:35:29.102Z,16.64
2019-04-26T04:36:29.026Z,16.75
2019-04-26T04:37:28.945Z,16.68
2019-04-26T04:38:28.866Z,16.67
2019-04-26T04:39:28.781Z,16.61
2019-04-26T04:40:28.704Z,16.67
2019-04-26T04:41:28.618Z,16.58
2019-04-26T04:42:28.545Z,16.67
2019-04-26T04:43:28.547Z,16.73
2019-04-26T04:44:28.380Z,16.68
2019-04-26T04:45:28.290Z,16.82
2019-04-26T04:46:28.220Z,16.79
2019-04-26T04:47:31.092Z,16.78
2019-04-26T04:48:28.054Z,16.86
2019-04-26T04:49:28.005Z,16.82
2019-04-26T04:50:27.898Z,16.89
2019-04-26T04:51:27.823Z,16.89
2019-04-26T04:52:27.729Z,16.96
2019-04-26T04:53:27.654Z,17.04
2019-04-26T04:54:27.570Z,16.98
2019-04-26T04:55:27.496Z,17.04
2019-04-26T04:56:27.418Z,17.15
2019-04-26T04:57:27.330Z,17.04
2019-04-26T04:58:27.255Z,17.06
2019-04-26T04:59:27.169Z,17.08
2019-04-26T05:00:27.096Z,17.07
2019-04-26T05:01:27.007Z,17.15
2019-04-26T05:02:26.930Z,17.22
2019-04-26T05:03:26.867Z,17.25
2019-04-26T05:04:26.768Z,17.25
2019-04-26T05:05:26.693Z,17.31
2019-04-26T05:06:26.605Z,17.41
2019-04-26T05:07:26.530Z,17.41
2019-04-26T05:08:26.457Z,17.49
2019-04-26T05:09:26.369Z,17.51
2019-04-26T05:10:26.293Z,17.55
2019-04-26T05:11:26.205Z,17.74
2019-04-26T05:12:26.161Z,17.79
2019-04-26T05:13:26.048Z,17.86
2019-04-26T05:14:25.968Z,17.89
2019-04-26T05:15:25.897Z,17.93
2019-04-26T05:16:25.818Z,17.95
2019-04-26T05:17:25.731Z,18.07
2019-04-26T05:18:25.649Z,18.15
2019-04-26T05:19:25.570Z,18.20
2019-04-26T05:20:25.495Z,18.15
2019-04-26T05:21:25.420Z,18.21
2019-04-26T05:22:25.332Z,18.26
2019-04-26T05:23:25.257Z,18.25
2019-04-26T05:24:25.180Z,18.17
2019-04-26T05:25:25.096Z,18.27
2019-04-26T05:26:25.008Z,18.21
2019-04-26T05:27:24.932Z,18.27
2019-04-26T05:28:24.858Z,18.36
2019-04-26T05:29:24.772Z,18.39
2019-04-26T05:30:24.695Z,18.37
2019-04-26T05:31:24.621Z,18.47
2019-04-26T05:32:24.534Z,18.48
2019-04-26T05:33:24.458Z,18.55
2019-04-26T05:34:24.392Z,18.55
2019-04-26T05:35:24.296Z,18.65
2019-04-26T05:36:24.234Z,18.66
2019-04-26T05:37:24.148Z,18.65
2019-04-26T05:38:24.059Z,18.65
2019-04-26T05:39:23.984Z,18.65
2019-04-26T05:40:23.897Z,18.51
2019-04-26T05:41:23.822Z,18.48
2019-04-26T05:42:23.747Z,18.55
2019-04-26T05:43:23.659Z,18.73
2019-04-26T05:44:23.585Z,18.66
2019-04-26T05:45:23.509Z,18.76
2019-04-26T05:46:23.423Z,18.82
2019-04-26T05:47:23.347Z,18.75
2019-04-26T05:48:23.260Z,18.75
2019-04-26T05:49:23.198Z,18.76
2019-04-26T05:50:23.109Z,18.70
2019-04-26T05:51:23.040Z,18.63
2019-04-26T05:52:22.952Z,18.62
2019-04-26T05:53:22.877Z,18.48
2019-04-26T05:54:22.800Z,18.63
2019-04-26T05:55:22.710Z,18.62
2019-04-26T05:56:22.647Z,18.50
2019-04-26T05:57:22.549Z,18.52
2019-04-26T05:58:22.502Z,18.50
2019-04-26T05:59:22.399Z,18.48
2019-04-26T06:00:22.311Z,18.63
2019-04-26T06:01:22.236Z,18.55
2019-04-26T06:02:22.151Z,18.55
2019-04-26T06:03:22.075Z,18.55
2019-04-26T06:04:21.999Z,18.66
2019-04-26T06:05:21.912Z,18.66
2019-04-26T06:06:21.837Z,18.70
2019-04-26T06:07:21.761Z,18.80
2019-04-26T06:08:31.020Z,18.84
2019-04-26T06:09:21.650Z,18.90
2019-04-26T06:10:21.533Z,19.02
2019-04-26T06:11:21.438Z,18.98
2019-04-26T06:12:21.362Z,19.04
2019-04-26T06:13:21.287Z,19.10
2019-04-26T06:14:21.201Z,19.19
2019-04-26T06:15:21.129Z,19.11
2019-04-26T06:16:21.038Z,19.13
2019-04-26T06:17:20.963Z,19.23
2019-04-26T06:18:20.888Z,19.28
2019-04-26T06:19:20.801Z,19.32
2019-04-26T06:20:22.984Z,19.41
2019-04-26T06:21:20.654Z,19.56
2019-04-26T06:22:20.563Z,19.63
2019-04-26T06:23:20.488Z,19.71
2019-04-26T06:24:20.413Z,19.80
2019-04-26T06:25:20.334Z,19.91
2019-04-26T06:26:20.252Z,20.05
2019-04-26T06:27:20.177Z,20.21
2019-04-26T06:28:20.089Z,20.33
2019-04-26T06:29:20.015Z,20.39
2019-04-26T06:30:19.939Z,20.48
2019-04-26T06:31:19.854Z,20.39
2019-04-26T06:32:19.816Z,20.33
2019-04-26T06:33:19.702Z,20.14
2019-04-26T06:34:19.616Z,20.28
2019-04-26T06:35:20.332Z,20.41
2019-04-26T06:36:19.465Z,20.39
2019-04-26T06:37:19.391Z,20.52
2019-04-26T06:38:19.308Z,20.52
2019-04-26T06:39:19.234Z,20.57
2019-04-26T06:40:19.153Z,20.55
2019-04-26T06:41:21.390Z,20.55
2019-04-26T06:42:19.026Z,20.59
2019-04-26T06:43:18.920Z,20.58
2019-04-26T06:44:18.834Z,20.72
2019-04-26T06:45:18.753Z,20.82
2019-04-26T06:46:18.679Z,20.94
2019-04-26T06:47:18.604Z,21.01
2019-04-26T06:48:18.516Z,21.12
2019-04-26T06:49:18.441Z,21.19
2019-04-26T06:50:18.366Z,21.22
2019-04-26T06:51:24.570Z,21.31
2019-04-26T06:52:18.205Z,21.25
2019-04-26T06:53:18.130Z,21.21
2019-04-26T06:54:18.054Z,21.09
2019-04-26T06:55:17.985Z,21.16
2019-04-26T06:56:17.892Z,21.24
2019-04-26T06:57:17.818Z,21.28
2019-04-26T06:58:17.744Z,21.27
2019-04-26T06:59:17.667Z,21.40
2019-04-26T07:00:17.593Z,21.37
2019-04-26T07:01:17.506Z,21.54
2019-04-26T07:02:17.431Z,21.54
2019-04-26T07:03:17.355Z,21.54
2019-04-26T07:04:17.273Z,21.64
2019-04-26T07:05:17.193Z,21.44
2019-04-26T07:06:17.118Z,21.43
2019-04-26T07:07:17.043Z,21.43
2019-04-26T07:08:17.096Z,21.34
2019-04-26T07:09:16.881Z,21.35
2019-04-26T07:10:16.809Z,21.42
2019-04-26T07:11:16.732Z,21.38
2019-04-26T07:12:16.656Z,21.46
2019-04-26T07:13:16.583Z,21.72
2019-04-26T07:14:16.494Z,21.90
2019-04-26T07:15:27.975Z,21.92
2019-04-26T07:16:22.030Z,22.00
2019-04-26T07:17:16.269Z,21.88
2019-04-26T07:18:16.194Z,21.94
2019-04-26T07:19:16.112Z,22.05
2019-04-26T07:20:16.032Z,22.09
2019-04-26T07:21:16.428Z,22.33
2019-04-26T07:22:15.883Z,22.49
2019-04-26T07:23:15.807Z,22.62
2019-04-26T07:24:15.733Z,22.91
2019-04-26T07:25:17.795Z,22.91
2019-04-26T07:26:15.570Z,23.01
2019-04-26T07:27:15.502Z,22.97
2019-04-26T07:28:15.442Z,23.00
2019-04-26T07:29:15.351Z,23.01
2019-04-26T07:30:15.305Z,23.47
2019-04-26T07:31:15.195Z,23.55
2019-04-26T07:32:15.112Z,23.57
2019-04-26T07:33:15.034Z,23.80
2019-04-26T07:34:14.959Z,24.09
2019-04-26T07:35:14.884Z,24.28
2019-04-26T07:36:14.810Z,24.93
2019-04-26T07:37:14.734Z,25.88
2019-04-26T07:38:14.660Z,25.69
2019-04-26T07:39:20.033Z,25.20
2019-04-26T07:40:14.515Z,24.28
2019-04-26T07:41:14.434Z,23.79
2019-04-26T07:42:14.360Z,23.68
2019-04-26T07:43:14.284Z,23.53
2019-04-26T07:44:14.214Z,23.66
2019-04-26T07:45:14.136Z,23.90
2019-04-26T07:46:14.062Z,23.61
2019-04-26T07:47:15.124Z,23.27
2019-04-26T07:48:14.623Z,23.39
2019-04-26T07:49:13.835Z,23.50
2019-04-26T07:50:14.184Z,23.43
2019-04-26T07:51:13.714Z,23.47
2019-04-26T07:52:13.614Z,23.38
2019-04-26T07:53:13.537Z,23.33
2019-04-26T07:54:13.462Z,23.20
2019-04-26T07:55:13.386Z,23.15
2019-04-26T07:56:13.575Z,23.01
2019-04-26T07:57:13.250Z,23.00
2019-04-26T07:58:13.197Z,23.17
2019-04-26T07:59:13.087Z,23.33
2019-04-26T08:00:13.079Z,23.48
2019-04-26T08:01:14.044Z,23.51
2019-04-26T08:02:13.415Z,23.53
2019-04-26T08:03:13.036Z,23.32
2019-04-26T08:04:12.713Z,23.33
2019-04-26T08:05:13.529Z,23.00
2019-04-26T08:06:13.681Z,23.01
2019-04-26T08:07:13.243Z,23.02
2019-04-26T08:08:12.836Z,23.15
2019-04-26T08:09:25.983Z,23.13
2019-04-26T08:10:12.346Z,23.01
2019-04-26T08:11:12.914Z,23.10
2019-04-26T08:12:12.257Z,22.73
2019-04-26T08:13:13.015Z,22.86
2019-04-26T08:14:12.579Z,22.80
2019-04-26T08:15:11.900Z,22.82
2019-04-26T08:16:12.393Z,22.95
2019-04-26T08:17:12.515Z,23.10
2019-04-26T08:18:11.663Z,23.22
2019-04-26T08:19:12.574Z,23.02
2019-04-26T08:20:12.604Z,22.88
2019-04-26T08:21:15.210Z,23.00
2019-04-26T08:22:17.982Z,22.94
2019-04-26T08:23:36.014Z,23.13
2019-04-26T08:24:11.213Z,23.20
2019-04-26T08:25:11.139Z,23.43
2019-04-26T08:26:11.168Z,23.33
2019-04-26T08:27:18.840Z,23.17
2019-04-26T08:28:11.995Z,23.35
2019-04-26T08:29:10.840Z,23.57
2019-04-26T08:30:14.479Z,23.66
2019-04-26T08:31:10.873Z,23.76
2019-04-26T08:32:11.373Z,23.98
2019-04-26T08:33:12.864Z,24.10
2019-04-26T08:34:10.467Z,23.72
2019-04-26T08:35:16.096Z,23.60
2019-04-26T08:36:10.566Z,23.36
2019-04-26T08:37:10.482Z,23.38
2019-04-26T08:38:15.927Z,23.60
2019-04-26T08:39:10.889Z,23.76
2019-04-26T08:40:10.015Z,23.31
2019-04-26T08:41:09.998Z,23.33
2019-04-26T08:42:18.240Z,23.17
2019-04-26T08:43:10.869Z,23.35
2019-04-26T08:44:09.805Z,23.48
2019-04-26T08:45:12.486Z,23.58
2019-04-26T08:46:12.593Z,23.61
2019-04-26T08:47:14.094Z,24.49
2019-04-26T08:48:10.368Z,25.23
2019-04-26T08:49:09.673Z,26.09
2019-04-26T08:50:12.246Z,25.99
2019-04-26T08:51:09.397Z,26.39
2019-04-26T08:52:14.713Z,26.73
2019-04-26T08:53:09.029Z,27.06
2019-04-26T08:54:08.966Z,27.81
2019-04-26T08:55:08.892Z,28.11
2019-04-26T08:56:11.623Z,28.56
2019-04-26T08:57:08.742Z,29.05
2019-04-26T08:58:08.668Z,27.96
2019-04-26T08:59:08.592Z,27.18
2019-04-26T09:00:08.517Z,26.88
2019-04-26T09:01:08.455Z,26.69
2019-04-26T09:02:08.397Z,26.06
2019-04-26T09:03:11.568Z,25.69
2019-04-26T09:04:08.230Z,25.15
2019-04-26T09:05:08.168Z,25.06
2019-04-26T09:06:08.093Z,25.21
2019-04-26T09:07:08.018Z,25.27
2019-04-26T09:08:07.955Z,25.38
2019-04-26T09:09:07.895Z,25.46
2019-04-26T09:10:11.316Z,25.61
2019-04-26T09:11:07.732Z,25.75
2019-04-26T09:12:08.289Z,25.83
2019-04-26T09:13:07.594Z,25.94
2019-04-26T09:14:07.519Z,25.92
2019-04-26T09:15:07.444Z,25.94
2019-04-26T09:16:07.423Z,25.97
2019-04-26T09:17:07.296Z,25.95
2019-04-26T09:18:07.244Z,25.64
2019-04-26T09:19:07.158Z,25.35
2019-04-26T09:20:07.988Z,25.38
2019-04-26T09:21:07.006Z,25.51
2019-04-26T09:22:12.735Z,25.69
2019-04-26T09:23:06.872Z,25.70
2019-04-26T09:24:08.279Z,26.17
2019-04-26T09:25:06.720Z,26.35
2019-04-26T09:26:08.606Z,26.47
2019-04-26T09:27:06.570Z,26.45
2019-04-26T09:28:06.497Z,26.51
2019-04-26T09:29:06.433Z,26.43
2019-04-26T09:30:06.519Z,26.40
2019-04-26T09:31:06.287Z,26.20
2019-04-26T09:32:06.207Z,26.43
2019-04-26T09:33:06.186Z,26.44
2019-04-26T09:34:06.385Z,26.77
2019-04-26T09:35:05.997Z,26.63
2019-04-26T09:36:05.923Z,25.98
2019-04-26T09:37:05.846Z,26.18
2019-04-26T09:38:05.784Z,26.30
2019-04-26T09:39:08.232Z,26.20
2019-04-26T09:40:10.545Z,26.23
2019-04-26T09:41:05.560Z,25.91
2019-04-26T09:42:09.484Z,25.69
2019-04-26T09:43:05.422Z,25.72
2019-04-26T09:44:05.359Z,25.79
2019-04-26T09:45:05.272Z,25.30
2019-04-26T09:46:05.209Z,25.28
2019-04-26T09:47:05.134Z,25.25
2019-04-26T09:48:05.059Z,25.13
2019-04-26T09:49:06.928Z,25.03
2019-04-26T09:50:04.969Z,25.10
2019-04-26T09:51:04.848Z,25.20
2019-04-26T09:52:04.776Z,25.05
2019-04-26T09:53:04.698Z,24.73
2019-04-26T09:54:04.623Z,24.37
2019-04-26T09:55:04.548Z,24.46
2019-04-26T09:56:04.479Z,24.47
2019-04-26T09:57:04.410Z,24.64
2019-04-26T09:58:04.349Z,24.49
2019-04-26T09:59:05.597Z,24.52
2019-04-26T10:00:04.199Z,24.43
2019-04-26T10:01:06.095Z,24.52
2019-04-26T10:02:04.049Z,24.45
2019-04-26T10:03:08.051Z,24.61
2019-04-26T10:04:03.887Z,25.00
2019-04-26T10:05:03.828Z,25.32
2019-04-26T10:06:03.750Z,25.28
2019-04-26T10:07:04.203Z,25.58
2019-04-26T10:08:03.599Z,25.36
2019-04-26T10:09:03.525Z,25.58
2019-04-26T10:10:03.455Z,25.90
2019-04-26T10:11:05.803Z,26.15
2019-04-26T10:12:03.299Z,26.10
2019-04-26T10:13:03.236Z,26.39
2019-04-26T10:14:03.174Z,25.95
2019-04-26T10:15:03.086Z,26.13
2019-04-26T10:16:04.260Z,25.91
2019-04-26T10:17:02.937Z,26.01
2019-04-26T10:18:02.862Z,26.18
2019-04-26T10:19:02.787Z,26.48
2019-04-26T10:20:02.717Z,26.55
2019-04-26T10:21:02.637Z,26.62
2019-04-26T10:22:02.575Z,26.75
2019-04-26T10:23:02.502Z,26.69
2019-04-26T10:24:02.425Z,26.66
2019-04-26T10:25:06.829Z,26.76
2019-04-26T10:26:02.275Z,26.70
2019-04-26T10:27:03.313Z,26.72
2019-04-26T10:28:02.128Z,26.81
2019-04-26T10:29:02.061Z,26.40
2019-04-26T10:30:07.858Z,26.48
2019-04-26T10:31:01.927Z,26.65
2019-04-26T10:32:01.840Z,26.67
2019-04-26T10:33:02.185Z,26.88
2019-04-26T10:34:01.689Z,27.14
2019-04-26T10:35:01.615Z,27.25
2019-04-26T10:36:01.539Z,27.09
2019-04-26T10:37:05.789Z,27.06
2019-04-26T10:38:01.390Z,27.28
2019-04-26T10:39:01.330Z,27.04
2019-04-26T10:40:01.253Z,26.85
2019-04-26T10:41:01.177Z,26.84
2019-04-26T10:42:01.109Z,27.06
2019-04-26T10:43:01.032Z,27.24
2019-04-26T10:44:00.954Z,27.27
2019-04-26T10:45:00.879Z,27.49
2019-04-26T10:46:00.821Z,27.43
2019-04-26T10:47:04.477Z,27.32
2019-04-26T10:48:00.665Z,27.37
2019-04-26T10:49:08.484Z,27.36
2019-04-26T10:50:00.516Z,27.57
2019-04-26T10:51:03.226Z,27.62
2019-04-26T10:52:00.379Z,27.32
2019-04-26T10:53:00.318Z,27.51
2019-04-26T10:54:01.556Z,27.97
2019-04-26T10:55:00.171Z,28.56
2019-04-26T10:56:00.090Z,29.23
2019-04-26T10:57:00.017Z,29.34
2019-04-26T10:57:59.955Z,29.83
2019-04-26T10:58:59.880Z,30.37
2019-04-26T10:59:59.804Z,30.46
2019-04-26T11:00:59.741Z,29.87
2019-04-26T11:01:59.671Z,30.05
2019-04-26T11:03:00.099Z,29.68
2019-04-26T11:03:59.531Z,30.45
2019-04-26T11:04:59.468Z,31.01
2019-04-26T11:05:59.393Z,31.39
2019-04-26T11:07:02.039Z,31.07
2019-04-26T11:07:59.256Z,31.53
2019-04-26T11:08:59.193Z,31.95
2019-04-26T11:09:59.120Z,32.18
2019-04-26T11:10:59.059Z,32.41
2019-04-26T11:11:58.981Z,32.48
2019-04-26T11:12:58.917Z,31.86
2019-04-26T11:13:58.858Z,31.78
2019-04-26T11:14:58.781Z,32.22
2019-04-26T11:16:02.284Z,32.69
2019-04-26T11:16:58.656Z,32.37
2019-04-26T11:17:58.581Z,33.00
2019-04-26T11:19:01.248Z,32.55
2019-04-26T11:19:58.456Z,32.14
2019-04-26T11:20:58.383Z,32.18
2019-04-26T11:21:58.319Z,31.53
2019-04-26T11:22:58.257Z,31.47
2019-04-26T11:23:58.195Z,31.19
2019-04-26T11:24:58.131Z,31.39
2019-04-26T11:26:01.528Z,31.48
2019-04-26T11:26:57.994Z,31.84
2019-04-26T11:27:57.933Z,32.59
2019-04-26T11:28:57.869Z,33.14
2019-04-26T11:29:59.284Z,33.07
2019-04-26T11:30:57.781Z,32.89
2019-04-26T11:31:58.459Z,33.01
2019-04-26T11:32:57.607Z,32.82
2019-04-26T11:34:05.033Z,32.41
2019-04-26T11:34:58.652Z,32.30
2019-04-26T11:35:57.416Z,32.13
2019-04-26T11:36:57.347Z,31.88
2019-04-26T11:37:57.295Z,31.78
2019-04-26T11:38:57.242Z,31.91
2019-04-26T11:39:57.160Z,31.53
2019-04-26T11:41:06.019Z,31.41
2019-04-26T11:41:57.021Z,31.47
2019-04-26T11:42:56.962Z,31.09
2019-04-26T11:43:56.895Z,29.94
2019-04-26T11:45:05.908Z,29.90
2019-04-26T11:46:04.223Z,29.90
2019-04-26T11:46:59.327Z,30.04
2019-04-26T11:47:56.737Z,30.95
2019-04-26T11:48:59.201Z,31.46
2019-04-26T11:49:56.533Z,31.21
2019-04-26T11:50:56.457Z,30.72
2019-04-26T11:51:58.690Z,30.51
2019-04-26T11:52:56.310Z,30.13
2019-04-26T11:53:56.246Z,30.07
2019-04-26T11:54:56.251Z,29.95
2019-04-26T11:55:56.111Z,29.90
2019-04-26T11:56:56.048Z,29.28
2019-04-26T11:57:55.987Z,29.24
2019-04-26T11:58:56.777Z,29.04
2019-04-26T11:59:55.849Z,28.80
2019-04-26T12:00:55.789Z,28.39
2019-04-26T12:01:55.711Z,28.34
2019-04-26T12:02:55.650Z,28.54
2019-04-26T12:03:59.253Z,28.49
2019-04-26T12:04:55.511Z,28.18
2019-04-26T12:05:55.448Z,27.85
2019-04-26T12:06:55.373Z,27.34
2019-04-26T12:07:55.310Z,27.13
2019-04-26T12:08:55.248Z,27.12
2019-04-26T12:09:55.176Z,27.04
2019-04-26T12:10:55.112Z,27.31
2019-04-26T12:12:04.580Z,27.04
2019-04-26T12:13:05.193Z,26.80
2019-04-26T12:13:55.369Z,27.14
2019-04-26T12:14:54.836Z,27.34
2019-04-26T12:15:54.777Z,27.54
2019-04-26T12:16:59.091Z,28.11
2019-04-26T12:17:58.632Z,28.12
2019-04-26T12:18:54.563Z,28.00
2019-04-26T12:19:54.487Z,27.93
2019-04-26T12:20:57.186Z,27.66
2019-04-26T12:21:54.350Z,27.72
2019-04-26T12:22:54.274Z,27.62
2019-04-26T12:23:55.487Z,28.07
2019-04-26T12:24:54.137Z,29.04
2019-04-26T12:25:54.116Z,29.80
2019-04-26T12:26:56.008Z,30.62
2019-04-26T12:27:54.002Z,30.31
2019-04-26T12:28:53.864Z,30.58
2019-04-26T12:29:53.853Z,30.91
2019-04-26T12:30:54.256Z,31.04
2019-04-26T12:31:53.651Z,30.29
2019-04-26T12:32:53.596Z,29.67
2019-04-26T12:33:53.514Z,28.68
2019-04-26T12:34:53.454Z,28.71
2019-04-26T12:35:57.160Z,29.09
2019-04-26T12:36:53.314Z,29.48
2019-04-26T12:37:54.685Z,30.26
2019-04-26T12:38:53.176Z,30.97
2019-04-26T12:39:53.114Z,30.86
2019-04-26T12:40:53.059Z,30.51
2019-04-26T12:41:52.976Z,30.34
2019-04-26T12:42:52.935Z,30.38
2019-04-26T12:43:54.600Z,29.74
2019-04-26T12:44:52.781Z,29.78
2019-04-26T12:45:52.702Z,29.57
2019-04-26T12:46:52.640Z,29.24
2019-04-26T12:47:52.565Z,29.37
2019-04-26T12:48:52.502Z,28.98
2019-04-26T12:49:54.446Z,28.41
2019-04-26T12:50:52.365Z,27.92
2019-04-26T12:51:52.312Z,27.77
2019-04-26T12:52:55.759Z,27.44
2019-04-26T12:53:52.177Z,27.36